Time;durP1;ratioP1;P1;durP2;ratioP2;P2;SDS_P1;SDS_P2;PMS_P1;PMS_P2;Temp;Humidity;BMP_temperature;BMP_pressure;BME280_temperature;BME280_humidity;BME280_pressure;Samples;Min_cycle;Max_cycle;Signal;HPM_P1;HPM_P2
2022/12/06 00:00:53;;;;;;;;;;;;;;;;;;4976195;28;20025;-92
2022/12/06 00:03:18;;;;;;;;;;;;;;;;;;4976575;28;19926;-92
2022/12/06 00:05:45;;;;;;;;;;;;;;;;;;4976046;28;19929;-92
2022/12/06 00:08:11;;;;;;;;;;;;;;;;;;4976036;28;20377;-92
2022/12/06 00:10:37;;;;;;;;;;;;;;;;;;4976157;28;19972;-92
2022/12/06 00:13:02;;;;;;;;;;;;;;;;;;4976118;28;19926;-92
2022/12/06 00:15:28;;;;;;;;;;;;;;;;;;4976101;28;20354;-93
2022/12/06 00:17:57;;;;;;;;;;;;;;;;;;4976201;28;20377;-93
2022/12/06 00:20:23;;;;;;;;;;;;;;;;;;4975938;28;19929;-92
2022/12/06 00:22:49;;;;;;;;;;;;;;;;;;4975977;28;19948;-92
2022/12/06 00:25:15;;;;;;;;;;;;;;;;;;4976013;28;20036;-93
2022/12/06 00:27:41;;;;;;;;;;;;;;;;;;4975823;28;19929;-93
2022/12/06 00:30:07;;;;;;;;;;;;;;;;;;4975907;28;19922;-93
2022/12/06 00:32:33;;;;;;;;;;;;;;;;;;4976115;28;19930;-93
2022/12/06 00:34:59;;;;;;;;;;;;;;;;;;4976598;28;19925;-93
2022/12/06 00:37:25;;;;;;;;;;;;;;;;;;4976151;28;19922;-93
2022/12/06 00:39:51;;;;;;;;;;;;;;;;;;4975988;28;20008;-93
2022/12/06 00:42:17;;;;;;;;;;;;;;;;;;4975746;28;20356;-92
2022/12/06 00:44:43;;;;;;;;;;;;;;;;;;4976173;28;19976;-93
2022/12/06 00:47:09;;;;;;;;;;;;;;;;;;4978628;28;20213;-93
2022/12/06 00:49:37;;;;;;;;;;;;;;;;;;4979772;28;20301;-93
2022/12/06 00:52:03;;;;;;;;;;;;;;;;;;4980131;28;19981;-93
2022/12/06 00:54:32;;;;;;;;;;;;;;;;;;4979856;28;19928;-92
2022/12/06 00:56:58;;;;;;;;;;;;;;;;;;4979720;28;19922;-93
2022/12/06 00:59:24;;;;;;;;;;;;;;;;;;4979379;28;19967;-92
2022/12/06 01:01:50;;;;;;;;;;;;;;;;;;4979421;28;19921;-94
2022/12/06 01:04:16;;;;;;;;;;;;;;;;;;4980186;28;19929;-93
2022/12/06 01:06:42;;;;;;;;;;;;;;;;;;4979674;28;19929;-93
2022/12/06 01:09:08;;;;;;;;;;;;;;;;;;4979545;28;19922;-93
2022/12/06 01:11:34;;;;;;;;;;;;;;;;;;4979352;28;19925;-93
2022/12/06 01:14:00;;;;;;;;;;;;;;;;;;4979271;28;19928;-93
2022/12/06 01:16:25;;;;;;;;;;;;;;;;;;4979211;28;19922;-93
2022/12/06 01:18:51;;;;;;;;;;;;;;;;;;4979279;28;20491;-93
2022/12/06 01:21:17;;;;;;;;;;;;;;;;;;4979030;28;20278;-93
2022/12/06 01:23:44;;;;;;;;;;;;;;;;;;4978346;28;20009;-93
2022/12/06 01:26:10;;;;;;;;;;;;;;;;;;4959858;28;19926;-92
2022/12/06 01:28:36;;;;;;;;;;;;;;;;;;4959874;28;19928;-92
2022/12/06 01:31:01;;;;;;;;;;;;;;;;;;4959590;28;20009;-92
2022/12/06 01:33:30;;;;;;;;;;;;;;;;;;4959799;28;20010;-93
2022/12/06 01:35:56;;;;;;;;;;;;;;;;;;4959955;28;20344;-93
2022/12/06 01:38:22;;;;;;;;;;;;;;;;;;4959640;28;19922;-92
2022/12/06 01:40:48;;;;;;;;;;;;;;;;;;4959119;28;19929;-92
2022/12/06 01:43:14;;;;;;;;;;;;;;;;;;4959240;28;20049;-93
2022/12/06 01:45:40;;;;;;;;;;;;;;;;;;4959439;28;20358;-92
2022/12/06 01:48:06;;;;;;;;;;;;;;;;;;4959752;28;20294;-93
2022/12/06 01:50:31;;;;;;;;;;;;;;;;;;4959421;28;19922;-91
2022/12/06 01:52:57;;;;;;;;;;;;;;;;;;4960881;28;19973;-91
2022/12/06 01:55:23;;;;;;;;;;;;;;;;;;4960732;28;19929;-93
2022/12/06 01:57:49;;;;;;;;;;;;;;;;;;4960821;28;19951;-93
2022/12/06 02:00:15;;;;;;;;;;;;;;;;;;4962666;28;19957;-94
2022/12/06 02:02:41;;;;;;;;;;;;;;;;;;4962077;28;20381;-93
2022/12/06 02:05:07;;;;;;;;;;;;;;;;;;4959493;28;19930;-94
2022/12/06 02:07:33;;;;;;;;;;;;;;;;;;4959103;28;19930;-93
2022/12/06 02:09:59;;;;;;;;;;;;;;;;;;4959055;28;19933;-93
2022/12/06 02:12:25;;;;;;;;;;;;;;;;;;4958602;28;20282;-93
2022/12/06 02:14:51;;;;;;;;;;;;;;;;;;4958851;28;19930;-93
2022/12/06 02:17:19;;;;;;;;;;;;;;;;;;4958891;28;19922;-93
2022/12/06 02:19:45;;;;;;;;;;;;;;;;;;4958935;28;20062;-93
2022/12/06 02:22:11;;;;;;;;;;;;;;;;;;4958849;28;19928;-93
2022/12/06 02:24:37;;;;;;;;;;;;;;;;;;4963066;28;19926;-93
2022/12/06 02:27:03;;;;;;;;;;;;;;;;;;4974726;28;19922;-93
2022/12/06 02:29:29;;;;;;;;;;;;;;;;;;4974937;28;19973;-92
2022/12/06 02:31:55;;;;;;;;;;;;;;;;;;4974429;28;20396;-92
2022/12/06 02:34:21;;;;;;;;;;;;;;;;;;4974605;28;19922;-93
2022/12/06 02:36:47;;;;;;;;;;;;;;;;;;4974539;28;20437;-92
2022/12/06 02:39:13;;;;;;;;;;;;;;;;;;4974501;28;19922;-92
2022/12/06 02:41:39;;;;;;;;;;;;;;;;;;4974492;28;19930;-92
2022/12/06 02:44:05;;;;;;;;;;;;;;;;;;4990677;28;19929;-93
2022/12/06 02:46:30;;;;;;;;;;;;;;;;;;4974334;28;19922;-92
2022/12/06 02:48:56;;;;;;;;;;;;;;;;;;4974202;28;20327;-92
2022/12/06 02:51:22;;;;;;;;;;;;;;;;;;4974111;28;19973;-92
2022/12/06 02:53:48;;;;;;;;;;;;;;;;;;4974182;28;19922;-92
2022/12/06 02:56:14;;;;;;;;;;;;;;;;;;4974103;28;19932;-92
2022/12/06 02:58:40;;;;;;;;;;;;;;;;;;4974338;28;19965;-92
2022/12/06 03:01:06;;;;;;;;;;;;;;;;;;4990262;28;19926;-92
2022/12/06 03:03:32;;;;;;;;;;;;;;;;;;4990122;28;19969;-92
2022/12/06 03:05:58;;;;;;;;;;;;;;;;;;4973985;28;19929;-93
2022/12/06 03:08:24;;;;;;;;;;;;;;;;;;4973861;28;19922;-92
2022/12/06 03:10:50;;;;;;;;;;;;;;;;;;4973513;28;19929;-93
2022/12/06 03:13:16;;;;;;;;;;;;;;;;;;4973646;28;19926;-92
2022/12/06 03:15:44;;;;;;;;;;;;;;;;;;4991072;28;21314;-95
2022/12/06 03:18:10;;;;;;;;;;;;;;;;;;4982561;28;19965;-95
2022/12/06 03:20:41;;;;;;;;;;;;;;;;;;4980139;28;20254;-96
2022/12/06 03:23:07;;;;;;;;;;;;;;;;;;4974864;28;19973;-92
2022/12/06 03:25:33;;;;;;;;;;;;;;;;;;4973936;28;19930;-94
2022/12/06 03:27:59;;;;;;;;;;;;;;;;;;4973670;28;20013;-92
2022/12/06 03:30:25;;;;;;;;;;;;;;;;;;4973345;28;19929;-92
2022/12/06 03:32:51;;;;;;;;;;;;;;;;;;4973544;28;19927;-92
2022/12/06 03:35:17;;;;;;;;;;;;;;;;;;4973470;28;20233;-91
2022/12/06 03:37:42;;;;;;;;;;;;;;;;;;4973310;28;19929;-92
2022/12/06 03:40:09;;;;;;;;;;;;;;;;;;4973498;28;19922;-92
2022/12/06 03:42:34;;;;;;;;;;;;;;;;;;4973621;28;19922;-92
2022/12/06 03:45:00;;;;;;;;;;;;;;;;;;4989466;28;19928;-93
2022/12/06 03:47:26;;;;;;;;;;;;;;;;;;4973440;28;19922;-93
2022/12/06 03:49:52;;;;;;;;;;;;;;;;;;4989384;28;19929;-92
2022/12/06 03:52:18;;;;;;;;;;;;;;;;;;4972795;28;19927;-92
2022/12/06 03:54:44;;;;;;;;;;;;;;;;;;4973453;28;20314;-92
2022/12/06 03:57:10;;;;;;;;;;;;;;;;;;4989562;28;19922;-93
2022/12/06 03:59:36;;;;;;;;;;;;;;;;;;4973402;28;19928;-92
2022/12/06 04:02:02;;;;;;;;;;;;;;;;;;4989126;28;19968;-92
2022/12/06 04:04:28;;;;;;;;;;;;;;;;;;4972896;28;19922;-93
2022/12/06 04:06:54;;;;;;;;;;;;;;;;;;4972852;28;20377;-92
2022/12/06 04:12:59;;;;;;;;;;;;;;;;;;4988825;28;19933;-93
2022/12/06 04:14:53;;;;;;;;;;;;;;;;;;4956727;28;19922;-92
2022/12/06 04:20:04;;;;;;;;;;;;;;;;;;4988947;28;19926;-93
2022/12/06 04:25:15;;;;;;;;;;;;;;;;;;4989167;28;19949;-94
2022/12/06 04:38:40;;;;;;;;;;;;;;;;;;4989113;28;20304;-94
2022/12/06 04:41:06;;;;;;;;;;;;;;;;;;4989339;28;19986;-93
2022/12/06 04:43:41;;;;;;;;;;;;;;;;;;4972940;28;19961;-94
2022/12/06 04:46:07;;;;;;;;;;;;;;;;;;4972515;28;19969;-92
2022/12/06 04:48:33;;;;;;;;;;;;;;;;;;4972368;28;19926;-93
2022/12/06 04:50:59;;;;;;;;;;;;;;;;;;4972511;28;19922;-92
2022/12/06 04:53:25;;;;;;;;;;;;;;;;;;4972142;28;19926;-92
2022/12/06 04:55:51;;;;;;;;;;;;;;;;;;4972369;28;19922;-92
2022/12/06 04:58:17;;;;;;;;;;;;;;;;;;4972518;28;19925;-93
2022/12/06 05:00:43;;;;;;;;;;;;;;;;;;4972375;28;19922;-93
2022/12/06 05:03:09;;;;;;;;;;;;;;;;;;4972345;28;19968;-93
2022/12/06 05:05:35;;;;;;;;;;;;;;;;;;4973043;28;19930;-93
2022/12/06 05:08:03;;;;;;;;;;;;;;;;;;4972364;28;20377;-93
2022/12/06 05:10:29;;;;;;;;;;;;;;;;;;4972213;28;19926;-93
2022/12/06 05:12:55;;;;;;;;;;;;;;;;;;4988590;28;19926;-93
2022/12/06 05:15:21;;;;;;;;;;;;;;;;;;4972561;28;19922;-93
2022/12/06 05:17:47;;;;;;;;;;;;;;;;;;4972229;28;20375;-93
2022/12/06 05:20:13;;;;;;;;;;;;;;;;;;4972317;28;19923;-93
2022/12/06 05:22:39;;;;;;;;;;;;;;;;;;4972232;28;19930;-93
2022/12/06 05:25:05;;;;;;;;;;;;;;;;;;4972071;28;19926;-93
2022/12/06 05:27:31;;;;;;;;;;;;;;;;;;4972261;28;19922;-93
2022/12/06 05:30:00;;;;;;;;;;;;;;;;;;4972155;28;19922;-93
2022/12/06 05:32:29;;;;;;;;;;;;;;;;;;4989697;28;19933;-93
2022/12/06 05:34:55;;;;;;;;;;;;;;;;;;4976104;28;19922;-94
2022/12/06 05:37:21;;;;;;;;;;;;;;;;;;4975769;28;19922;-93
2022/12/06 05:39:47;;;;;;;;;;;;;;;;;;4976702;28;20378;-93
2022/12/06 05:42:13;;;;;;;;;;;;;;;;;;4993102;28;20047;-93
2022/12/06 05:44:40;;;;;;;;;;;;;;;;;;4976958;28;19930;-93
2022/12/06 05:47:06;;;;;;;;;;;;;;;;;;4978465;28;20366;-94
2022/12/06 05:49:32;;;;;;;;;;;;;;;;;;4977551;28;19933;-93
2022/12/06 05:51:57;;;;;;;;;;;;;;;;;;4976646;28;19930;-93
2022/12/06 05:54:23;;;;;;;;;;;;;;;;;;4976049;28;20008;-93
2022/12/06 05:56:49;;;;;;;;;;;;;;;;;;4975429;28;19980;-93
2022/12/06 05:59:15;;;;;;;;;;;;;;;;;;4975431;28;19973;-93
2022/12/06 06:01:41;;;;;;;;;;;;;;;;;;4975355;28;20441;-93
2022/12/06 06:04:07;;;;;;;;;;;;;;;;;;4975521;28;19938;-93
2022/12/06 06:06:33;;;;;;;;;;;;;;;;;;4991841;28;19922;-93
2022/12/06 06:08:59;;;;;;;;;;;;;;;;;;4975490;28;19972;-93
2022/12/06 06:11:25;;;;;;;;;;;;;;;;;;4974941;28;19922;-92
2022/12/06 06:13:53;;;;;;;;;;;;;;;;;;4974878;28;20334;-93
2022/12/06 06:16:19;;;;;;;;;;;;;;;;;;4974875;28;19922;-92
2022/12/06 06:18:45;;;;;;;;;;;;;;;;;;4991717;28;19984;-93
2022/12/06 06:21:11;;;;;;;;;;;;;;;;;;4975082;28;20425;-92
2022/12/06 06:23:37;;;;;;;;;;;;;;;;;;4991258;28;20012;-93
2022/12/06 06:26:03;;;;;;;;;;;;;;;;;;4974784;28;19982;-93
2022/12/06 06:28:29;;;;;;;;;;;;;;;;;;4974830;28;20024;-93
2022/12/06 06:30:55;;;;;;;;;;;;;;;;;;4974843;28;20314;-93
2022/12/06 06:33:23;;;;;;;;;;;;;;;;;;4990723;28;19989;-93
2022/12/06 06:35:49;;;;;;;;;;;;;;;;;;4991294;28;20441;-92
2022/12/06 06:38:15;;;;;;;;;;;;;;;;;;4974913;28;19922;-92
2022/12/06 06:40:41;;;;;;;;;;;;;;;;;;4990797;28;19976;-92
2022/12/06 06:43:19;;;;;;;;;;;;;;;;;;4974318;28;19922;-93
2022/12/06 06:45:45;;;;;;;;;;;;;;;;;;4974266;28;19922;-93
2022/12/06 06:48:12;;;;;;;;;;;;;;;;;;4990302;28;19928;-93
2022/12/06 06:50:37;;;;;;;;;;;;;;;;;;4974121;28;19926;-93
2022/12/06 06:53:03;;;;;;;;;;;;;;;;;;4974209;28;19926;-93
2022/12/06 06:55:29;;;;;;;;;;;;;;;;;;4974282;28;19926;-92
2022/12/06 06:57:55;;;;;;;;;;;;;;;;;;4974509;28;19925;-89
2022/12/06 07:00:21;;;;;;;;;;;;;;;;;;4974457;28;19976;-91
2022/12/06 07:02:47;;;;;;;;;;;;;;;;;;4973972;28;19948;-92
2022/12/06 07:05:13;;;;;;;;;;;;;;;;;;4973739;28;19929;-90
2022/12/06 07:07:39;;;;;;;;;;;;;;;;;;4990056;28;19933;-91
2022/12/06 07:10:05;;;;;;;;;;;;;;;;;;4973502;28;19929;-91
2022/12/06 07:12:31;;;;;;;;;;;;;;;;;;4973840;28;20289;-90
2022/12/06 07:14:57;;;;;;;;;;;;;;;;;;4973864;28;20234;-88
2022/12/06 07:17:23;;;;;;;;;;;;;;;;;;4990074;28;20036;-87
2022/12/06 07:19:49;;;;;;;;;;;;;;;;;;4989965;28;20329;-87
2022/12/06 07:22:15;;;;;;;;;;;;;;;;;;4973638;28;19922;-87
2022/12/06 07:24:41;;;;;;;;;;;;;;;;;;4989397;28;19933;-88
2022/12/06 07:27:07;;;;;;;;;;;;;;;;;;4989501;28;19973;-88
2022/12/06 07:29:33;;;;;;;;;;;;;;;;;;4973579;28;20275;-86
2022/12/06 07:31:59;;;;;;;;;;;;;;;;;;4989689;28;20374;-87
2022/12/06 07:34:25;;;;;;;;;;;;;;;;;;4973548;28;19929;-87
2022/12/06 07:36:51;;;;;;;;;;;;;;;;;;4989586;28;20334;-87
2022/12/06 07:39:16;;;;;;;;;;;;;;;;;;4989297;28;19937;-87
2022/12/06 07:47:12;;;;;;;;;;;;;;;;;;4989112;28;20366;-87
2022/12/06 07:49:38;;;;;;;;;;;;;;;;;;4989129;28;19922;-90
2022/12/06 07:52:04;;;;;;;;;;;;;;;;;;4972925;28;20013;-89
2022/12/06 07:54:30;;;;;;;;;;;;;;;;;;4973739;28;19922;-89
2022/12/06 07:56:56;;;;;;;;;;;;;;;;;;4972304;28;20370;-89
2022/12/06 07:59:22;;;;;;;;;;;;;;;;;;4989128;28;19922;-89
2022/12/06 08:01:48;;;;;;;;;;;;;;;;;;4972713;28;19922;-89
2022/12/06 08:04:14;;;;;;;;;;;;;;;;;;4988902;28;19922;-89
2022/12/06 08:06:40;;;;;;;;;;;;;;;;;;4988908;28;19922;-88
2022/12/06 08:09:06;;;;;;;;;;;;;;;;;;4975745;28;19922;-88
2022/12/06 08:11:32;;;;;;;;;;;;;;;;;;4975317;28;19934;-88
2022/12/06 08:13:58;;;;;;;;;;;;;;;;;;4972873;28;19922;-88
2022/12/06 08:16:23;;;;;;;;;;;;;;;;;;5007224;28;19972;-88
2022/12/06 08:18:51;;;;;;;;;;;;;;;;;;5008316;28;20305;-88
2022/12/06 08:21:17;;;;;;;;;;;;;;;;;;4991702;28;19929;-88
2022/12/06 08:23:43;;;;;;;;;;;;;;;;;;5007750;28;19922;-89
2022/12/06 08:26:09;;;;;;;;;;;;;;;;;;4956401;28;19926;-89
2022/12/06 08:28:35;;;;;;;;;;;;;;;;;;4956302;28;19932;-89
2022/12/06 08:31:01;;;;;;;;;;;;;;;;;;4956380;28;20332;-88
2022/12/06 08:33:27;;;;;;;;;;;;;;;;;;4956159;28;19926;-88
2022/12/06 08:35:53;;;;;;;;;;;;;;;;;;4956307;28;19930;-89
2022/12/06 08:38:19;;;;;;;;;;;;;;;;;;4956478;28;19926;-88
2022/12/06 08:40:45;;;;;;;;;;;;;;;;;;4956219;28;19945;-88
2022/12/06 08:43:11;;;;;;;;;;;;;;;;;;4956174;28;19922;-88
2022/12/06 08:45:37;;;;;;;;;;;;;;;;;;4956254;28;20261;-88
2022/12/06 08:48:03;;;;;;;;;;;;;;;;;;4956285;28;19926;-88
2022/12/06 08:50:28;;;;;;;;;;;;;;;;;;4956744;28;20312;-89
2022/12/06 08:52:54;;;;;;;;;;;;;;;;;;4956138;28;19926;-89
2022/12/06 08:55:20;;;;;;;;;;;;;;;;;;4956103;28;19930;-89
2022/12/06 08:57:46;;;;;;;;;;;;;;;;;;4955980;28;19922;-89
2022/12/06 09:00:12;;;;;;;;;;;;;;;;;;4956073;28;19988;-89
2022/12/06 09:02:38;;;;;;;;;;;;;;;;;;4955865;28;19926;-89
2022/12/06 09:05:04;;;;;;;;;;;;;;;;;;4956395;28;19980;-89
2022/12/06 09:07:30;;;;;;;;;;;;;;;;;;4958018;28;20277;-88
2022/12/06 09:09:56;;;;;;;;;;;;;;;;;;4960070;28;19930;-89
2022/12/06 09:12:22;;;;;;;;;;;;;;;;;;4959834;28;20105;-89
2022/12/06 09:14:47;;;;;;;;;;;;;;;;;;4959812;28;19922;-89
2022/12/06 09:17:13;;;;;;;;;;;;;;;;;;4959569;28;19922;-89
2022/12/06 09:19:39;;;;;;;;;;;;;;;;;;4959527;28;20088;-89
2022/12/06 09:22:05;;;;;;;;;;;;;;;;;;4959541;28;19922;-88
2022/12/06 09:24:31;;;;;;;;;;;;;;;;;;4959486;28;19933;-89
2022/12/06 09:26:57;;;;;;;;;;;;;;;;;;4975748;28;19922;-89
2022/12/06 09:29:23;;;;;;;;;;;;;;;;;;4959753;28;20278;-89
2022/12/06 09:31:49;;;;;;;;;;;;;;;;;;4959507;28;20345;-89
2022/12/06 09:34:15;;;;;;;;;;;;;;;;;;4959686;28;19926;-89
2022/12/06 09:36:41;;;;;;;;;;;;;;;;;;4959601;28;19968;-89
2022/12/06 09:39:07;;;;;;;;;;;;;;;;;;4959283;28;20370;-88
2022/12/06 09:41:33;;;;;;;;;;;;;;;;;;4959336;28;19922;-89
2022/12/06 09:43:59;;;;;;;;;;;;;;;;;;4959240;28;19926;-89
2022/12/06 09:46:25;;;;;;;;;;;;;;;;;;4959108;28;19922;-89
2022/12/06 09:48:51;;;;;;;;;;;;;;;;;;4959126;28;20292;-90
2022/12/06 09:51:17;;;;;;;;;;;;;;;;;;4959007;28;19929;-89
2022/12/06 09:53:43;;;;;;;;;;;;;;;;;;4959049;28;19922;-89
2022/12/06 09:56:09;;;;;;;;;;;;;;;;;;4959356;28;19926;-89
2022/12/06 09:58:34;;;;;;;;;;;;;;;;;;4958990;28;19921;-89
2022/12/06 10:01:00;;;;;;;;;;;;;;;;;;4958679;28;20373;-89
2022/12/06 10:03:26;;;;;;;;;;;;;;;;;;4959238;28;19926;-89
2022/12/06 10:05:54;;;;;;;;;;;;;;;;;;4959073;28;19966;-89
2022/12/06 10:08:20;;;;;;;;;;;;;;;;;;4958952;28;19973;-89
2022/12/06 10:10:46;;;;;;;;;;;;;;;;;;4958698;28;19922;-87
2022/12/06 10:13:12;;;;;;;;;;;;;;;;;;4958627;28;19949;-92
2022/12/06 10:15:37;;;;;;;;;;;;;;;;;;4958942;28;20013;-90
2022/12/06 10:18:03;;;;;;;;;;;;;;;;;;4958287;28;20445;-90
2022/12/06 10:20:29;;;;;;;;;;;;;;;;;;4958027;28;20064;-91
2022/12/06 10:22:55;;;;;;;;;;;;;;;;;;4959017;28;19973;-91
2022/12/06 10:25:22;;;;;;;;;;;;;;;;;;4958256;28;19926;-91
2022/12/06 10:27:49;;;;;;;;;;;;;;;;;;4958499;28;19922;-91
2022/12/06 10:30:15;;;;;;;;;;;;;;;;;;4958397;28;19926;-91
2022/12/06 10:32:40;;;;;;;;;;;;;;;;;;4958352;28;20449;-90
2022/12/06 10:35:06;;;;;;;;;;;;;;;;;;4958073;28;19961;-90
2022/12/06 10:37:32;;;;;;;;;;;;;;;;;;4958028;28;19922;-90
2022/12/06 10:39:58;;;;;;;;;;;;;;;;;;4958144;28;19922;-91
2022/12/06 10:42:24;;;;;;;;;;;;;;;;;;4957979;28;19929;-90
2022/12/06 10:44:50;;;;;;;;;;;;;;;;;;4957756;28;19932;-90
2022/12/06 10:47:16;;;;;;;;;;;;;;;;;;4957957;28;19922;-89
2022/12/06 10:49:42;;;;;;;;;;;;;;;;;;4958106;28;19922;-92
2022/12/06 10:52:08;;;;;;;;;;;;;;;;;;4958406;28;20425;-93
2022/12/06 10:54:34;;;;;;;;;;;;;;;;;;4958253;28;20383;-92
2022/12/06 10:57:00;;;;;;;;;;;;;;;;;;4957961;28;19932;-92
2022/12/06 10:59:25;;;;;;;;;;;;;;;;;;4957896;28;19922;-93
2022/12/06 11:01:51;;;;;;;;;;;;;;;;;;4958564;28;19937;-93
2022/12/06 11:04:17;;;;;;;;;;;;;;;;;;4958888;28;20390;-93
2022/12/06 11:06:44;;;;;;;;;;;;;;;;;;4958563;28;19922;-92
2022/12/06 11:09:10;;;;;;;;;;;;;;;;;;4959279;28;20374;-93
2022/12/06 11:11:36;;;;;;;;;;;;;;;;;;4957863;28;19928;-92
2022/12/06 11:14:02;;;;;;;;;;;;;;;;;;4957638;28;19972;-92
2022/12/06 11:16:28;;;;;;;;;;;;;;;;;;4958341;28;19922;-92
2022/12/06 11:18:54;;;;;;;;;;;;;;;;;;4957926;28;20325;-92
2022/12/06 11:21:20;;;;;;;;;;;;;;;;;;4957576;28;20001;-93
2022/12/06 11:23:46;;;;;;;;;;;;;;;;;;4957659;28;19922;-92
2022/12/06 11:26:13;;;;;;;;;;;;;;;;;;4958205;28;19933;-93
2022/12/06 11:28:40;;;;;;;;;;;;;;;;;;4957311;28;20094;-92
2022/12/06 11:31:06;;;;;;;;;;;;;;;;;;4957723;28;20378;-95
2022/12/06 11:33:32;;;;;;;;;;;;;;;;;;4957088;28;19934;-93
2022/12/06 11:35:58;;;;;;;;;;;;;;;;;;4957136;28;20206;-92
2022/12/06 11:38:24;;;;;;;;;;;;;;;;;;4957240;28;19929;-93
2022/12/06 11:40:50;;;;;;;;;;;;;;;;;;4957098;28;20427;-93
2022/12/06 11:43:16;;;;;;;;;;;;;;;;;;4956725;28;19974;-92
2022/12/06 11:45:48;;;;;;;;;;;;;;;;;;4957723;28;19922;-95
2022/12/06 11:48:18;;;;;;;;;;;;;;;;;;4958334;28;19922;-95
2022/12/06 11:50:44;;;;;;;;;;;;;;;;;;4958304;28;20029;-93
2022/12/06 11:53:16;;;;;;;;;;;;;;;;;;4957700;28;19994;-96
2022/12/06 11:55:42;;;;;;;;;;;;;;;;;;4957257;28;19990;-94
2022/12/06 11:58:11;;;;;;;;;;;;;;;;;;4972018;28;20005;-93
2022/12/06 12:00:37;;;;;;;;;;;;;;;;;;4958122;28;19926;-95
2022/12/06 12:03:06;;;;;;;;;;;;;;;;;;4957556;28;20020;-95
2022/12/06 12:05:35;;;;;;;;;;;;;;;;;;4957105;28;20329;-95
2022/12/06 12:08:04;;;;;;;;;;;;;;;;;;4957583;28;19950;-96
2022/12/06 12:10:35;;;;;;;;;;;;;;;;;;4957511;28;19922;-95
2022/12/06 12:15:46;;;;;;;;;;;;;;;;;;4973367;28;19946;-95
2022/12/06 12:18:12;;;;;;;;;;;;;;;;;;4957783;28;19922;-95
2022/12/06 12:20:38;;;;;;;;;;;;;;;;;;4957403;28;19957;-96
2022/12/06 12:23:07;;;;;;;;;;;;;;;;;;4958210;28;19926;-96
2022/12/06 12:25:41;;;;;;;;;;;;;;;;;;4969285;28;19949;-96
2022/12/06 12:28:07;;;;;;;;;;;;;;;;;;4973259;28;19926;-93
2022/12/06 12:30:35;;;;;;;;;;;;;;;;;;4972825;28;19929;-93
2022/12/06 12:33:01;;;;;;;;;;;;;;;;;;4956768;28;19932;-94
2022/12/06 12:35:28;;;;;;;;;;;;;;;;;;4972642;28;20012;-93
2022/12/06 12:37:54;;;;;;;;;;;;;;;;;;4972775;28;19934;-93
2022/12/06 12:40:20;;;;;;;;;;;;;;;;;;4972733;28;19930;-93
2022/12/06 12:42:46;;;;;;;;;;;;;;;;;;4974861;28;19922;-89
2022/12/06 12:45:12;;;;;;;;;;;;;;;;;;4992185;28;19922;-91
2022/12/06 12:47:38;;;;;;;;;;;;;;;;;;4992370;28;19922;-89
2022/12/06 12:50:04;;;;;;;;;;;;;;;;;;4976019;28;20297;-88
2022/12/06 12:52:30;;;;;;;;;;;;;;;;;;4992222;28;19921;-89
2022/12/06 12:54:56;;;;;;;;;;;;;;;;;;4975896;28;20274;-89
2022/12/06 12:57:22;;;;;;;;;;;;;;;;;;4975972;28;19922;-88
2022/12/06 12:59:48;;;;;;;;;;;;;;;;;;4992204;28;20373;-89
2022/12/06 13:02:13;;;;;;;;;;;;;;;;;;4975928;28;19928;-90
2022/12/06 13:04:42;;;;;;;;;;;;;;;;;;4975975;28;20444;-88
2022/12/06 13:07:08;;;;;;;;;;;;;;;;;;4975930;28;19928;-91
2022/12/06 13:09:34;;;;;;;;;;;;;;;;;;4975677;28;19922;-88
2022/12/06 13:12:00;;;;;;;;;;;;;;;;;;4975351;28;20366;-88
2022/12/06 13:14:26;;;;;;;;;;;;;;;;;;4991894;28;19928;-88
2022/12/06 13:16:52;;;;;;;;;;;;;;;;;;4975364;28;19957;-88
2022/12/06 13:19:18;;;;;;;;;;;;;;;;;;4991906;28;19926;-88
2022/12/06 13:21:44;;;;;;;;;;;;;;;;;;4975155;28;19929;-88
2022/12/06 13:24:10;;;;;;;;;;;;;;;;;;4991499;28;20281;-88
2022/12/06 13:26:36;;;;;;;;;;;;;;;;;;4975234;28;19929;-88
2022/12/06 13:29:02;;;;;;;;;;;;;;;;;;4991827;28;19922;-92
2022/12/06 13:31:28;;;;;;;;;;;;;;;;;;4974927;28;19931;-88
2022/12/06 13:33:53;;;;;;;;;;;;;;;;;;4975022;28;19973;-89
2022/12/06 13:36:19;;;;;;;;;;;;;;;;;;4991640;28;20067;-90
2022/12/06 13:38:46;;;;;;;;;;;;;;;;;;4975367;28;19926;-90
2022/12/06 13:41:12;;;;;;;;;;;;;;;;;;4974736;28;20021;-88
2022/12/06 13:43:38;;;;;;;;;;;;;;;;;;4991728;28;20017;-92
2022/12/06 13:46:04;;;;;;;;;;;;;;;;;;4975252;28;19921;-89
2022/12/06 13:48:29;;;;;;;;;;;;;;;;;;4991207;28;19922;-90
2022/12/06 13:50:55;;;;;;;;;;;;;;;;;;4974532;28;20262;-89
2022/12/06 13:53:21;;;;;;;;;;;;;;;;;;4973416;28;19926;-89
2022/12/06 13:55:47;;;;;;;;;;;;;;;;;;4974480;28;19953;-90
2022/12/06 13:58:13;;;;;;;;;;;;;;;;;;4974965;28;19923;-89
2022/12/06 14:00:39;;;;;;;;;;;;;;;;;;4991214;28;19922;-89
2022/12/06 14:03:05;;;;;;;;;;;;;;;;;;4975159;28;19922;-90
2022/12/06 14:05:31;;;;;;;;;;;;;;;;;;4974834;28;19969;-90
2022/12/06 14:07:57;;;;;;;;;;;;;;;;;;4975069;28;19976;-90
2022/12/06 14:10:23;;;;;;;;;;;;;;;;;;4975305;28;20326;-92
2022/12/06 14:12:49;;;;;;;;;;;;;;;;;;4974852;28;20306;-92
2022/12/06 14:15:15;;;;;;;;;;;;;;;;;;4981085;28;19929;-90
2022/12/06 14:17:41;;;;;;;;;;;;;;;;;;4991283;28;19922;-91
2022/12/06 14:20:07;;;;;;;;;;;;;;;;;;4974864;28;19929;-90
2022/12/06 14:22:33;;;;;;;;;;;;;;;;;;4990808;28;19928;-90
2022/12/06 14:24:59;;;;;;;;;;;;;;;;;;4990640;28;20382;-90
2022/12/06 14:27:25;;;;;;;;;;;;;;;;;;4974974;28;19922;-90
2022/12/06 14:29:51;;;;;;;;;;;;;;;;;;4973583;28;20447;-90
2022/12/06 14:32:17;;;;;;;;;;;;;;;;;;4958231;28;19948;-92
2022/12/06 14:34:43;;;;;;;;;;;;;;;;;;4958441;28;20382;-90
2022/12/06 14:37:09;;;;;;;;;;;;;;;;;;4974871;28;19926;-90
2022/12/06 14:39:35;;;;;;;;;;;;;;;;;;4978877;28;19929;-91
2022/12/06 14:44:45;;;;;;;;;;;;;;;;;;4990528;28;19922;-89
2022/12/06 14:47:11;;;;;;;;;;;;;;;;;;4974435;28;20411;-89
2022/12/06 14:52:22;;;;;;;;;;;;;;;;;;4990090;28;19926;-88
2022/12/06 14:54:48;;;;;;;;;;;;;;;;;;4973742;28;19929;-89
2022/12/06 14:57:14;;;;;;;;;;;;;;;;;;4974929;28;19965;-88
2022/12/06 14:59:40;;;;;;;;;;;;;;;;;;5009987;28;19988;-88
2022/12/06 15:02:06;;;;;;;;;;;;;;;;;;4999641;28;19922;-89
2022/12/06 15:04:32;;;;;;;;;;;;;;;;;;4973741;28;19922;-89
2022/12/06 15:06:58;;;;;;;;;;;;;;;;;;4990166;28;20377;-89
2022/12/06 15:09:24;;;;;;;;;;;;;;;;;;4990078;28;19926;-88
2022/12/06 15:14:38;;;;;;;;;;;;;;;;;;4975025;28;19922;-90
2022/12/06 15:17:05;;;;;;;;;;;;;;;;;;4973763;28;20298;-89
2022/12/06 15:19:31;;;;;;;;;;;;;;;;;;4989738;28;19977;-89
2022/12/06 15:21:57;;;;;;;;;;;;;;;;;;4989675;28;20008;-89
2022/12/06 15:24:22;;;;;;;;;;;;;;;;;;4987262;28;19975;-88
2022/12/06 15:26:48;;;;;;;;;;;;;;;;;;4957279;28;19923;-88
2022/12/06 15:29:14;;;;;;;;;;;;;;;;;;4957157;28;19949;-88
2022/12/06 15:31:40;;;;;;;;;;;;;;;;;;4957514;28;19993;-91
2022/12/06 15:34:06;;;;;;;;;;;;;;;;;;4956845;28;20291;-89
2022/12/06 15:36:33;;;;;;;;;;;;;;;;;;4956792;28;19922;-88
2022/12/06 15:38:59;;;;;;;;;;;;;;;;;;4956808;28;20053;-88
2022/12/06 15:41:25;;;;;;;;;;;;;;;;;;4957069;28;20400;-88
2022/12/06 15:43:52;;;;;;;;;;;;;;;;;;4957208;28;19921;-89
2022/12/06 15:46:18;;;;;;;;;;;;;;;;;;4957198;28;19929;-89
2022/12/06 15:48:44;;;;;;;;;;;;;;;;;;4957469;28;19922;-90
2022/12/06 15:51:10;;;;;;;;;;;;;;;;;;4956663;28;19926;-90
2022/12/06 15:53:36;;;;;;;;;;;;;;;;;;4956901;28;19976;-90
2022/12/06 15:56:01;;;;;;;;;;;;;;;;;;4957075;28;19922;-90
2022/12/06 15:58:30;;;;;;;;;;;;;;;;;;4957123;28;20278;-90
2022/12/06 16:00:57;;;;;;;;;;;;;;;;;;4956558;28;20033;-89
2022/12/06 16:03:23;;;;;;;;;;;;;;;;;;4956621;28;19937;-89
2022/12/06 16:05:50;;;;;;;;;;;;;;;;;;4956463;28;19930;-91
2022/12/06 16:08:15;;;;;;;;;;;;;;;;;;4956595;28;19993;-91
2022/12/06 16:10:41;;;;;;;;;;;;;;;;;;4956760;28;20339;-91
2022/12/06 16:13:23;;;;;;;;;;;;;;;;;;4956433;28;19926;-91
2022/12/06 16:15:49;;;;;;;;;;;;;;;;;;4956478;28;19929;-89
2022/12/06 16:18:15;;;;;;;;;;;;;;;;;;4955696;28;19922;-90
2022/12/06 16:20:41;;;;;;;;;;;;;;;;;;4956402;28;20000;-89
2022/12/06 16:25:52;;;;;;;;;;;;;;;;;;4973772;28;19926;-88
2022/12/06 16:28:18;;;;;;;;;;;;;;;;;;4975952;28;20388;-90
2022/12/06 16:30:44;;;;;;;;;;;;;;;;;;4975797;28;19928;-88
2022/12/06 16:33:09;;;;;;;;;;;;;;;;;;5007313;28;20019;-88
2022/12/06 16:35:35;;;;;;;;;;;;;;;;;;4994837;28;19976;-89
2022/12/06 16:38:01;;;;;;;;;;;;;;;;;;4977441;28;20037;-88
2022/12/06 16:40:27;;;;;;;;;;;;;;;;;;4975189;28;19992;-87
2022/12/06 16:42:53;;;;;;;;;;;;;;;;;;4975770;28;20350;-88
2022/12/06 16:45:19;;;;;;;;;;;;;;;;;;4975570;28;19926;-88
2022/12/06 16:47:46;;;;;;;;;;;;;;;;;;4992957;28;19990;-89
2022/12/06 16:50:12;;;;;;;;;;;;;;;;;;4975610;28;19997;-88
2022/12/06 16:52:38;;;;;;;;;;;;;;;;;;4974749;28;19933;-88
2022/12/06 16:55:04;;;;;;;;;;;;;;;;;;4974442;28;20366;-88
2022/12/06 16:57:32;;;;;;;;;;;;;;;;;;4977248;28;19932;-89
2022/12/06 16:59:58;;;;;;;;;;;;;;;;;;4975869;28;19926;-90
2022/12/06 17:02:25;;;;;;;;;;;;;;;;;;4975163;28;19921;-90
2022/12/06 17:04:51;;;;;;;;;;;;;;;;;;4975097;28;19969;-90
2022/12/06 17:07:17;;;;;;;;;;;;;;;;;;4975452;28;20421;-90
2022/12/06 17:09:42;;;;;;;;;;;;;;;;;;4975203;28;20009;-89
2022/12/06 17:12:11;;;;;;;;;;;;;;;;;;4974884;28;19929;-89
2022/12/06 17:14:37;;;;;;;;;;;;;;;;;;4975130;28;19922;-88
2022/12/06 17:17:03;;;;;;;;;;;;;;;;;;4974949;28;20370;-90